• Join FlightAware (Why Join?)
  • Login
  • US Flag 
05:01AM EDT


 

Airport Tracker/Info


-or-


 

Live Flight TrackerFlight Track Log ✈ N1881Q ✈ 29-Jun-2013 ✈ KITH - KTEB

Flight Track Log - Related Links

Times and Time Zones

All times are in EDT time to prevent confusion due to time zone crossing. See the N1881Q flight status page for this flight to view local times or setup timezone preferences in your user account.

Time Position Orientation Groundspeed Altitude Reporting Facility
EDT Latitude Longitude Course Direction KTS MPH feet Rate Location/Type
06:57PM 42.5189 -76.6075 154° Southeast 257 296 7,800  Level New York Center
06:58PM 42.4406 -76.5922 172° South 218 251 8,000 960 Climbing New York Center
06:59PM 42.4108 -76.4800 110° East 192 221 9,800 1,860 Climbing New York Center
07:00PM 42.3811 -76.3594 108° East 244 281 11,800 1,560 Climbing New York Center
07:01PM 42.3411 -76.2328 113° Southeast 309 356 12,900 1,320 Climbing New York Center
07:02PM 42.0635 -76.1867 154° Southeast  Level FlightAware Approximate
07:03PM 41.9930 -76.1397 154° Southeast  Level FlightAware Approximate
07:03PM 42.2986 -76.0669 109° East 427 491 14,700  Level Boston Center
07:04PM 42.2650 -75.9417 110° East 411 473 14,900 60 Climbing Boston Center
07:05PM 42.2172 -75.8017 115° Southeast 406 467 14,900  Level Boston Center
07:06PM 42.1714 -75.6533 113° Southeast 400 460 15,000  Climbing Boston Center
07:07PM 42.1294 -75.5169 112° Southeast 400 460 15,000  Level Boston Center
07:08PM 42.0831 -75.3803 115° Southeast 400 460 15,000  Level Boston Center
07:09PM 42.0286 -75.2183 114° Southeast 400 460 15,000  Level Boston Center
07:10PM 41.9814 -75.1017 119° Southeast 394 453 15,000  Level Boston Center
07:11PM 41.9283 -74.9600 117° Southeast 394 453 15,000 -300 Level Boston Center
07:12PM 41.8831 -74.8411 117° Southeast 394 453 14,400 -900 Descending Boston Center
07:13PM 41.8278 -74.6969 117° Southeast 394 453 13,300 -1,500 Descending Boston Center
07:14PM 41.7625 -74.6222 139° Southeast 364 419 11,400 -2,400 Descending Boston Center
07:15PM 41.6608 -74.6019 172° South 334 384 8,600 -2,220 Descending Boston Center
07:16PM 41.5836 -74.5994 179° South 327 376 7,000 -840 Descending Boston Center
07:17PM 41.4961 -74.5908 176° South 305 351 7,000 -300 Level Boston Center
07:19PM 41.3333 -74.5833 178° South 274 315 6,100 -480 Descending New York TRACON
07:20PM 41.2833 -74.5167 135° Southeast 284 327 5,500 -900 Descending New York TRACON
07:21PM 41.2333 -74.4167 124° Southeast 285 328 4,300 -780 Descending New York TRACON
07:22PM 41.2000 -74.3500 124° Southeast 279 321 4,100 -540 Descending New York TRACON
07:23PM 41.1500 -74.2667 129° Southeast 261 300 3,300 -480 Descending New York TRACON
07:24PM 41.1000 -74.1833 129° Southeast 243 280 3,100 -180 Descending New York TRACON
07:25PM 41.0667 -74.1333 131° Southeast 218 251 3,000 -540 Descending New York TRACON
07:26PM 41.0333 -74.0667 124° Southeast 215 247 2,100 -480 Descending New York TRACON
07:27PM 40.9833 -74.0500 166° South 184 212 2,100 -240 Level New York TRACON
07:28PM 40.9333 -74.0500 180° South 144 166 1,700 -600 Descending New York TRACON
07:29PM 40.9000 -74.0500 180° South 140 161 1,000 -720 Descending New York TRACON
07:31PM 40.8500 -74.0500 114° Southeast  Level FlightAware Approximate
07:38PM 40.8501 -74.0608 114° Southeast  Level Estimated